Time;durP1;ratioP1;P1;durP2;ratioP2;P2;SDS_P1;SDS_P2;PMS_P1;PMS_P2;Temp;Humidity;BMP_temperature;BMP_pressure;BME280_temperature;BME280_humidity;BME280_pressure;Samples;Min_cycle;Max_cycle;Signal;HPM_P1;HPM_P2
2023/08/02 00:02:19;;;;;;;3.45;0.80;;;15.70;99.90;;;;;;5024749;28;20133;-84
2023/08/02 00:04:45;;;;;;;6.32;0.90;;;15.70;99.90;;;;;;5008997;28;20116;-84
2023/08/02 00:07:11;;;;;;;6.95;1.10;;;15.70;99.90;;;;;;4992957;28;20050;-84
2023/08/02 00:09:36;;;;;;;8.00;0.90;;;15.70;99.90;;;;;;4993100;28;20472;-84
2023/08/02 00:12:02;;;;;;;4.05;1.00;;;15.70;99.90;;;;;;5008880;28;20073;-84
2023/08/02 00:14:28;;;;;;;4.40;0.93;;;15.70;99.90;;;;;;4992785;28;20041;-84
2023/08/02 00:16:53;;;;;;;4.32;1.08;;;15.70;99.90;;;;;;5008427;28;20111;-84
2023/08/02 00:19:19;;;;;;;7.50;1.48;;;15.70;99.90;;;;;;5008557;28;20050;-84
2023/08/02 00:21:45;;;;;;;7.38;1.15;;;15.70;99.90;;;;;;4993033;28;20052;-84
2023/08/02 00:24:11;;;;;;;7.22;1.20;;;15.70;99.90;;;;;;5009465;28;20038;-84
2023/08/02 00:26:37;;;;;;;8.00;2.13;;;15.70;99.90;;;;;;5007585;28;20128;-84
2023/08/02 00:29:03;;;;;;;8.18;2.78;;;15.70;99.90;;;;;;5009393;28;20051;-84
2023/08/02 00:31:28;;;;;;;6.85;1.98;;;15.60;99.90;;;;;;4991291;28;20053;-85
2023/08/02 00:33:54;;;;;;;8.57;2.67;;;15.60;99.90;;;;;;4992495;28;20045;-84
2023/08/02 00:36:20;;;;;;;7.63;3.00;;;15.60;99.90;;;;;;5026881;28;20127;-84
2023/08/02 00:38:45;;;;;;;12.27;3.90;;;15.60;99.90;;;;;;4991478;28;20496;-84
2023/08/02 00:41:11;;;;;;;11.70;4.40;;;15.60;99.90;;;;;;5009504;28;20034;-85
2023/08/02 00:43:41;;;;;;;10.15;4.18;;;15.60;99.90;;;;;;5008922;28;20408;-85
2023/08/02 00:46:13;;;;;;;7.47;4.10;;;15.60;99.90;;;;;;5024570;28;20045;-84
2023/08/02 00:48:39;;;;;;;9.55;4.25;;;15.60;99.90;;;;;;5024954;28;20095;-84
2023/08/02 00:51:08;;;;;;;12.55;4.80;;;15.60;99.90;;;;;;5009573;28;20535;-84
2023/08/02 00:53:34;;;;;;;11.52;4.93;;;15.60;99.90;;;;;;5007911;28;20489;-85
2023/08/02 00:56:01;;;;;;;10.63;4.88;;;15.60;99.90;;;;;;5009449;28;20132;-85
2023/08/02 00:58:26;;;;;;;10.05;4.30;;;15.60;99.90;;;;;;5025559;28;20034;-85
2023/08/02 01:00:52;;;;;;;8.52;3.30;;;15.60;99.90;;;;;;5009551;28;20045;-85
2023/08/02 01:03:18;;;;;;;13.57;3.15;;;15.60;99.90;;;;;;5013119;28;20053;-85
2023/08/02 01:05:51;;;;;;;6.07;2.17;;;15.60;99.90;;;;;;5030149;28;20041;-85
2023/08/02 01:08:31;;;;;;;11.13;2.28;;;15.60;99.90;;;;;;4996578;28;20041;-84
2023/08/02 01:11:03;;;;;;;7.60;2.58;;;15.60;99.90;;;;;;5029823;28;20467;-84
2023/08/02 01:13:30;;;;;;;10.13;2.20;;;15.60;99.90;;;;;;5012837;28;20076;-85
2023/08/02 01:15:58;;;;;;;7.50;1.95;;;15.60;99.90;;;;;;5011350;28;20062;-84
2023/08/02 01:18:24;;;;;;;10.00;1.92;;;15.60;99.90;;;;;;5012024;28;20052;-84
2023/08/02 01:20:50;;;;;;;9.88;2.45;;;15.60;99.90;;;;;;5029588;28;20076;-85
2023/08/02 01:23:15;;;;;;;9.40;2.20;;;15.60;99.90;;;;;;5012798;28;20077;-84
2023/08/02 01:25:44;;;;;;;10.18;2.13;;;15.60;99.90;;;;;;4995418;28;20099;-85
2023/08/02 01:28:20;;;;;;;12.20;2.38;;;15.60;99.90;;;;;;4996665;28;20071;-85
2023/08/02 01:30:46;;;;;;;9.52;2.20;;;15.60;99.90;;;;;;4996030;28;20044;-84
2023/08/02 01:33:13;;;;;;;11.55;2.65;;;15.60;99.90;;;;;;5012490;28;20140;-84
2023/08/02 01:35:39;;;;;;;7.35;2.50;;;15.60;99.90;;;;;;5027259;28;20489;-84
2023/08/02 01:38:05;;;;;;;10.38;2.13;;;15.50;99.90;;;;;;5012958;28;20409;-85
2023/08/02 01:40:31;;;;;;;10.25;2.60;;;15.60;99.90;;;;;;5029859;28;20041;-84
2023/08/02 01:42:57;;;;;;;11.63;2.70;;;15.50;99.90;;;;;;5011690;28;20119;-84
2023/08/02 01:45:23;;;;;;;10.23;2.70;;;15.50;99.90;;;;;;5011683;28;20060;-84
2023/08/02 01:47:48;;;;;;;8.52;2.80;;;15.50;99.90;;;;;;5029120;28;20466;-85
2023/08/02 01:50:14;;;;;;;9.98;3.17;;;15.50;99.90;;;;;;5011535;28;20034;-85
2023/08/02 01:52:40;;;;;;;16.55;3.50;;;15.50;99.90;;;;;;5028054;28;20387;-84
2023/08/02 01:55:06;;;;;;;12.75;3.17;;;15.50;99.90;;;;;;5012453;28;20044;-84
2023/08/02 01:57:32;;;;;;;16.20;3.70;;;15.50;99.90;;;;;;5009784;28;20220;-84
2023/08/02 01:59:57;;;;;;;15.50;3.30;;;15.50;99.90;;;;;;5026901;28;20049;-84
2023/08/02 02:02:23;;;;;;;13.38;3.65;;;15.50;99.90;;;;;;5010943;28;20509;-84
2023/08/02 02:04:50;;;;;;;13.27;4.05;;;15.50;99.90;;;;;;4996957;28;20037;-84
2023/08/02 02:07:16;;;;;;;13.35;3.22;;;15.50;99.90;;;;;;4995484;28;20053;-84
2023/08/02 02:09:42;;;;;;;14.40;3.50;;;15.50;99.90;;;;;;5010838;28;20044;-84
2023/08/02 02:12:08;;;;;;;13.68;3.30;;;15.50;99.90;;;;;;4994309;28;20045;-85
2023/08/02 02:14:33;;;;;;;18.00;3.70;;;15.50;99.90;;;;;;5011794;28;20038;-85
2023/08/02 02:16:59;;;;;;;13.35;3.50;;;15.50;99.90;;;;;;5009972;28;20283;-84
2023/08/02 02:19:25;;;;;;;16.50;4.28;;;15.50;99.90;;;;;;5012004;28;20485;-85
2023/08/02 02:21:51;;;;;;;9.32;3.53;;;15.40;99.90;;;;;;5010965;28;20049;-85
2023/08/02 02:24:16;;;;;;;10.38;3.63;;;15.50;99.90;;;;;;5011086;28;20041;-84
2023/08/02 02:26:42;;;;;;;12.40;3.55;;;15.50;99.90;;;;;;4994581;28;20041;-84
2023/08/02 02:29:08;;;;;;;13.32;3.78;;;15.50;99.90;;;;;;4995482;28;20049;-84
2023/08/02 02:31:34;;;;;;;15.25;3.85;;;15.50;99.90;;;;;;5026265;28;20049;-85
2023/08/02 02:33:59;;;;;;;8.95;3.30;;;15.50;99.90;;;;;;5010630;28;20148;-85
2023/08/02 02:36:25;;;;;;;15.13;3.38;;;15.50;99.90;;;;;;5011283;28;20045;-85
2023/08/02 02:38:51;;;;;;;7.30;2.90;;;15.40;99.90;;;;;;5010479;28;20406;-85
2023/08/02 02:41:16;;;;;;;10.93;3.30;;;15.50;99.90;;;;;;4994532;28;20118;-85
2023/08/02 02:43:42;;;;;;;13.73;3.50;;;15.40;99.90;;;;;;4997745;28;20049;-84
2023/08/02 02:46:08;;;;;;;10.27;3.60;;;15.50;99.90;;;;;;5036110;28;20056;-85
2023/08/02 02:48:33;;;;;;;12.25;3.38;;;15.40;99.90;;;;;;5010988;28;20563;-85
2023/08/02 02:50:59;;;;;;;13.85;4.38;;;15.40;99.90;;;;;;5028994;28;20116;-85
2023/08/02 02:53:25;;;;;;;22.35;3.55;;;15.50;99.90;;;;;;4993316;28;20041;-85
2023/08/02 02:55:53;;;;;;;12.05;3.55;;;15.50;99.90;;;;;;5010472;28;20087;-85
2023/08/02 02:58:19;;;;;;;11.98;3.40;;;15.40;99.90;;;;;;5028019;28;20072;-84
2023/08/02 03:00:45;;;;;;;11.10;3.28;;;15.50;99.90;;;;;;5009371;28;20096;-85
2023/08/02 03:03:10;;;;;;;18.05;3.50;;;15.40;99.90;;;;;;5026983;28;20041;-85
2023/08/02 03:05:39;;;;;;;11.63;2.90;;;15.50;99.90;;;;;;5010497;28;20103;-85
2023/08/02 03:08:05;;;;;;;11.80;3.08;;;15.50;99.90;;;;;;5009716;28;20037;-85
2023/08/02 03:10:31;;;;;;;12.13;3.40;;;15.40;99.90;;;;;;5027989;28;20092;-84
2023/08/02 03:12:56;;;;;;;11.70;3.13;;;15.50;99.90;;;;;;5010149;28;20584;-85
2023/08/02 03:15:22;;;;;;;12.50;3.58;;;15.50;99.90;;;;;;5009568;28;20042;-85
2023/08/02 03:17:48;;;;;;;12.18;2.75;;;15.40;99.90;;;;;;4993138;28;20482;-85
2023/08/02 03:20:14;;;;;;;14.73;3.33;;;15.50;99.90;;;;;;5010580;28;20046;-84
2023/08/02 03:22:39;;;;;;;14.02;3.20;;;15.50;99.90;;;;;;5008335;28;20108;-84
2023/08/02 03:25:05;;;;;;;10.70;2.80;;;15.50;99.90;;;;;;5028325;28;20068;-84
2023/08/02 03:27:31;;;;;;;10.45;3.08;;;15.40;99.90;;;;;;5008772;28;20042;-84
2023/08/02 03:29:56;;;;;;;14.65;2.70;;;15.50;99.90;;;;;;5011382;28;20137;-84
2023/08/02 03:32:23;;;;;;;11.90;3.40;;;15.50;99.90;;;;;;5009312;28;20111;-84
2023/08/02 03:34:49;;;;;;;13.98;3.15;;;15.40;99.90;;;;;;5009377;28;20054;-85
2023/08/02 03:37:14;;;;;;;13.98;3.80;;;15.40;99.90;;;;;;5020944;28;20438;-84
2023/08/02 03:39:40;;;;;;;17.70;3.58;;;15.40;99.90;;;;;;4993081;28;20072;-84
2023/08/02 03:42:06;;;;;;;14.15;4.10;;;15.50;99.90;;;;;;4993026;28;20040;-84
2023/08/02 03:44:32;;;;;;;13.40;3.83;;;15.40;99.90;;;;;;5026201;28;20363;-84
2023/08/02 03:46:58;;;;;;;14.30;3.83;;;15.40;99.90;;;;;;5008518;28;20061;-84
2023/08/02 03:49:23;;;;;;;12.48;3.65;;;15.40;99.90;;;;;;4992820;28;20087;-84
2023/08/02 03:51:52;;;;;;;11.38;3.33;;;15.40;99.90;;;;;;5009263;28;20041;-84
2023/08/02 03:54:18;;;;;;;20.35;3.85;;;15.40;99.90;;;;;;5010145;28;20124;-85
2023/08/02 03:56:44;;;;;;;15.52;3.75;;;15.40;99.90;;;;;;4992241;28;20124;-85
2023/08/02 03:59:10;;;;;;;14.70;3.70;;;15.40;99.90;;;;;;5026264;28;20137;-84
2023/08/02 04:01:35;;;;;;;16.52;4.18;;;15.40;99.90;;;;;;4993127;28;20568;-84
2023/08/02 04:04:01;;;;;;;17.80;4.15;;;15.40;99.90;;;;;;5003152;28;20034;-85
2023/08/02 04:06:27;;;;;;;15.80;4.35;;;15.30;99.90;;;;;;4994678;28;20049;-84
2023/08/02 04:08:52;;;;;;;15.63;4.05;;;15.40;99.90;;;;;;5017848;28;20088;-84
2023/08/02 04:11:18;;;;;;;16.75;4.18;;;15.30;99.90;;;;;;4991764;28;20045;-84
2023/08/02 04:13:44;;;;;;;18.63;4.55;;;15.30;99.90;;;;;;5009687;28;20132;-85
2023/08/02 04:16:10;;;;;;;24.77;4.95;;;15.40;99.90;;;;;;5008134;28;20136;-84
2023/08/02 04:18:35;;;;;;;17.77;5.10;;;15.40;99.90;;;;;;4992551;28;20252;-84
2023/08/02 04:21:01;;;;;;;20.20;4.95;;;15.40;99.90;;;;;;5009324;28;20524;-84
2023/08/02 04:23:27;;;;;;;18.10;4.82;;;15.40;99.90;;;;;;4992742;28;20042;-84
2023/08/02 04:25:52;;;;;;;19.77;5.15;;;15.40;99.90;;;;;;4991376;28;20111;-84
2023/08/02 04:28:18;;;;;;;19.25;5.30;;;15.40;99.90;;;;;;5009141;28;20048;-85
2023/08/02 04:30:51;;;;;;;23.63;6.07;;;15.40;99.90;;;;;;5015509;28;20129;-85
2023/08/02 04:33:17;;;;;;;16.60;4.97;;;15.40;99.90;;;;;;5025570;28;20116;-85
2023/08/02 04:35:43;;;;;;;21.75;5.30;;;15.40;99.90;;;;;;5012126;28;20045;-85
2023/08/02 04:38:08;;;;;;;21.90;5.60;;;15.40;99.90;;;;;;5025062;28;20129;-84
2023/08/02 04:40:38;;;;;;;19.02;5.65;;;15.40;99.90;;;;;;5024421;28;20052;-84
2023/08/02 04:43:04;;;;;;;21.77;6.13;;;15.40;99.90;;;;;;4991938;28;20084;-84
2023/08/02 04:45:30;;;;;;;25.63;5.60;;;15.40;99.90;;;;;;5025781;28;20448;-84
2023/08/02 04:47:55;;;;;;;20.42;5.57;;;15.40;99.90;;;;;;5008263;28;20050;-84
2023/08/02 04:50:21;;;;;;;16.40;5.38;;;15.40;99.90;;;;;;5007939;28;20045;-84
2023/08/02 04:52:47;;;;;;;22.63;5.97;;;15.40;99.90;;;;;;5022814;28;20049;-84
2023/08/02 04:55:13;;;;;;;20.77;5.25;;;15.50;99.90;;;;;;5007734;28;20048;-83
2023/08/02 04:57:38;;;;;;;22.42;5.68;;;15.40;99.90;;;;;;5006057;28;20049;-84
2023/08/02 05:00:06;;;;;;;14.57;5.53;;;15.40;99.90;;;;;;5006165;28;20053;-84
2023/08/02 05:02:36;;;;;;;21.27;5.63;;;15.40;99.90;;;;;;5016604;28;20033;-84
2023/08/02 05:05:03;;;;;;;16.85;5.43;;;15.40;99.90;;;;;;5023708;28;20102;-83
2023/08/02 05:07:35;;;;;;;17.55;5.80;;;15.50;99.90;;;;;;5007843;28;20107;-84
2023/08/02 05:10:04;;;;;;;16.58;5.53;;;15.50;99.90;;;;;;4993971;28;20048;-83
2023/08/02 05:12:33;;;;;;;20.00;5.80;;;15.50;99.90;;;;;;5020303;28;20056;-84
2023/08/02 05:14:58;;;;;;;29.02;5.85;;;15.40;99.90;;;;;;5008339;28;20540;-84
2023/08/02 05:17:29;;;;;;;17.45;5.57;;;15.50;99.90;;;;;;4991062;28;20493;-83
2023/08/02 05:19:55;;;;;;;19.90;6.03;;;15.50;99.90;;;;;;5008667;28;20600;-84
2023/08/02 05:22:21;;;;;;;21.17;6.50;;;15.40;99.90;;;;;;5024536;28;20037;-83
2023/08/02 05:24:48;;;;;;;20.35;5.63;;;15.50;99.90;;;;;;5009143;28;20046;-84
2023/08/02 05:27:14;;;;;;;15.98;5.95;;;15.50;99.90;;;;;;5008216;28;20037;-85
2023/08/02 05:29:40;;;;;;;19.60;5.75;;;15.50;99.90;;;;;;4991900;28;20467;-84
2023/08/02 05:32:06;;;;;;;16.58;6.22;;;15.50;99.90;;;;;;4992215;28;20037;-83
2023/08/02 05:34:31;;;;;;;18.77;5.93;;;15.60;99.90;;;;;;5007082;28;20545;-83
2023/08/02 05:36:57;;;;;;;18.95;6.22;;;15.50;99.90;;;;;;5012461;28;20190;-84
2023/08/02 05:39:23;;;;;;;23.77;6.05;;;15.60;99.90;;;;;;4993448;28;20091;-86
2023/08/02 05:41:48;;;;;;;18.00;5.18;;;15.60;99.90;;;;;;5004282;28;20596;-86
2023/08/02 05:44:14;;;;;;;22.10;5.82;;;15.60;99.90;;;;;;5016057;28;20457;-84
2023/08/02 05:46:40;;;;;;;17.00;5.57;;;15.60;99.90;;;;;;5009004;28;20053;-85
2023/08/02 05:49:06;;;;;;;18.45;6.20;;;15.70;99.90;;;;;;5011839;28;20821;-85
2023/08/02 05:51:32;;;;;;;16.27;6.10;;;15.70;99.90;;;;;;5012209;28;20057;-85
2023/08/02 05:53:57;;;;;;;17.42;5.70;;;15.80;99.90;;;;;;4995753;28;20048;-84
2023/08/02 05:56:23;;;;;;;18.88;6.30;;;15.90;99.90;;;;;;5026170;28;20037;-83
2023/08/02 05:58:49;;;;;;;14.93;5.93;;;15.90;99.90;;;;;;5029386;28;20497;-85
2023/08/02 06:01:14;;;;;;;16.95;5.60;;;16.00;99.90;;;;;;5011123;28;20057;-84
2023/08/02 06:03:40;;;;;;;14.15;5.15;;;16.10;99.90;;;;;;5011519;28;20044;-85
2023/08/02 06:06:06;;;;;;;16.17;5.45;;;16.10;99.90;;;;;;5010679;28;20130;-86
2023/08/02 06:08:32;;;;;;;19.38;5.47;;;16.20;99.90;;;;;;4995066;28;20041;-87
2023/08/02 06:11:00;;;;;;;17.73;5.50;;;16.20;99.90;;;;;;4992536;28;20069;-86
2023/08/02 06:13:27;;;;;;;15.63;5.63;;;16.20;99.90;;;;;;4992939;28;20049;-87
2023/08/02 06:15:52;;;;;;;15.07;5.25;;;16.20;99.90;;;;;;5008735;28;20037;-86
2023/08/02 06:18:18;;;;;;;14.90;5.63;;;16.20;99.90;;;;;;5026674;28;20099;-87
2023/08/02 06:20:44;;;;;;;14.77;5.68;;;16.20;99.90;;;;;;5021042;28;20049;-87
2023/08/02 06:23:12;;;;;;;15.75;6.03;;;16.30;99.90;;;;;;5008859;28;20124;-84
2023/08/02 06:25:38;;;;;;;18.27;5.63;;;16.30;99.90;;;;;;4990859;28;20073;-86
2023/08/02 06:28:04;;;;;;;16.50;5.75;;;16.40;99.90;;;;;;4993679;28;20065;-85
2023/08/02 06:30:30;;;;;;;18.73;5.43;;;16.40;99.90;;;;;;4997536;28;20522;-85
2023/08/02 06:32:56;;;;;;;12.93;5.10;;;16.50;99.90;;;;;;4993315;28;20132;-85
2023/08/02 06:35:22;;;;;;;16.38;5.20;;;16.60;99.90;;;;;;5009898;28;20540;-85
2023/08/02 06:37:47;;;;;;;16.45;5.53;;;16.70;99.90;;;;;;4993688;28;20111;-84
2023/08/02 06:40:13;;;;;;;19.08;6.18;;;16.70;99.90;;;;;;5028149;28;20124;-84
2023/08/02 06:42:39;;;;;;;19.02;5.55;;;16.80;99.90;;;;;;4994245;28;20056;-84
2023/08/02 06:45:05;;;;;;;16.83;6.50;;;16.80;99.90;;;;;;5011296;28;20041;-85
2023/08/02 06:47:31;;;;;;;15.05;5.15;;;16.80;99.90;;;;;;5026664;28;20080;-85
2023/08/02 06:49:57;;;;;;;14.50;5.88;;;16.90;99.90;;;;;;5022176;28;20345;-85
2023/08/02 06:52:22;;;;;;;14.90;6.00;;;16.90;99.90;;;;;;5009504;28;20098;-85
2023/08/02 06:54:52;;;;;;;14.63;6.05;;;17.00;99.90;;;;;;5010591;28;20041;-85
2023/08/02 06:57:22;;;;;;;18.63;6.00;;;17.00;99.90;;;;;;4994212;28;20083;-85
2023/08/02 06:59:52;;;;;;;14.82;6.18;;;17.00;99.90;;;;;;5026903;28;20089;-85
2023/08/02 07:02:18;;;;;;;13.85;6.40;;;17.10;99.90;;;;;;5027038;28;20111;-84
2023/08/02 07:04:44;;;;;;;15.70;6.40;;;17.10;99.90;;;;;;5029749;28;20842;-87
2023/08/02 07:07:10;;;;;;;16.35;6.60;;;17.10;99.90;;;;;;5034049;28;20049;-85
2023/08/02 07:09:35;;;;;;;18.70;7.22;;;17.10;99.90;;;;;;4996915;28;20037;-86
2023/08/02 07:12:01;;;;;;;18.73;6.57;;;17.00;99.90;;;;;;5018854;28;20041;-85
2023/08/02 07:14:27;;;;;;;15.75;6.97;;;17.10;99.90;;;;;;5010855;28;20096;-84
2023/08/02 07:16:53;;;;;;;13.38;6.15;;;17.20;99.90;;;;;;5026228;28;20073;-85
2023/08/02 07:19:18;;;;;;;16.38;6.53;;;17.30;99.90;;;;;;5010151;28;20096;-85
2023/08/02 07:21:44;;;;;;;10.95;6.15;;;17.40;99.90;;;;;;5008141;28;20522;-85
2023/08/02 07:24:10;;;;;;;13.05;5.68;;;17.40;99.90;;;;;;4993316;28;20152;-87
2023/08/02 07:26:36;;;;;;;13.55;5.55;;;17.40;99.90;;;;;;4991635;28;20124;-85
2023/08/02 07:29:01;;;;;;;14.00;5.95;;;17.40;99.90;;;;;;5026175;28;20397;-85
2023/08/02 07:31:27;;;;;;;15.82;5.95;;;17.40;99.90;;;;;;5008649;28;20489;-85
2023/08/02 07:33:53;;;;;;;11.48;4.43;;;17.30;99.90;;;;;;5039055;28;20378;-86
2023/08/02 07:36:19;;;;;;;12.02;4.13;;;17.30;99.90;;;;;;4991742;28;20084;-86
2023/08/02 07:38:46;;;;;;;16.60;5.32;;;17.30;99.90;;;;;;4992189;28;20068;-86
2023/08/02 07:41:12;;;;;;;17.88;4.43;;;17.20;99.90;;;;;;5007958;28;20497;-86
2023/08/02 07:43:38;;;;;;;10.85;4.15;;;17.20;99.90;;;;;;5010105;28;20206;-87
2023/08/02 07:46:05;;;;;;;12.77;3.95;;;17.20;99.90;;;;;;5027116;28;20300;-87
2023/08/02 07:48:31;;;;;;;13.82;4.53;;;17.10;99.90;;;;;;5030798;28;20045;-86
2023/08/02 07:50:56;;;;;;;15.02;4.10;;;17.20;99.90;;;;;;5033838;28;20401;-86
2023/08/02 07:53:22;;;;;;;11.30;3.67;;;17.10;99.90;;;;;;5008336;28;20453;-87
2023/08/02 07:55:49;;;;;;;14.93;3.78;;;17.10;99.90;;;;;;5015085;28;20080;-87
2023/08/02 07:58:16;;;;;;;12.02;4.03;;;17.10;99.90;;;;;;4993683;28;20037;-87
2023/08/02 08:00:42;;;;;;;12.05;3.95;;;17.10;99.90;;;;;;4991836;28;20064;-87
2023/08/02 08:03:08;;;;;;;15.43;3.85;;;17.10;99.90;;;;;;4992368;28;20410;-87
2023/08/02 08:05:34;;;;;;;12.25;3.58;;;17.10;99.90;;;;;;5008958;28;20501;-87
2023/08/02 08:08:02;;;;;;;8.52;3.40;;;17.00;99.90;;;;;;5009285;28;20044;-86
2023/08/02 08:10:28;;;;;;;10.45;3.60;;;17.00;99.90;;;;;;5008622;28;20121;-86
2023/08/02 08:12:54;;;;;;;10.07;3.42;;;17.00;99.90;;;;;;5009059;28;20527;-86
2023/08/02 08:15:20;;;;;;;11.10;3.45;;;17.00;99.90;;;;;;5012548;28;20460;-86
2023/08/02 08:17:45;;;;;;;11.48;3.53;;;17.00;99.90;;;;;;5010202;28;20057;-86
2023/08/02 08:20:12;;;;;;;11.10;3.60;;;16.90;99.90;;;;;;4994055;28;20099;-86
2023/08/02 08:22:37;;;;;;;10.52;3.28;;;16.90;99.90;;;;;;4997507;28;20506;-86
2023/08/02 08:25:03;;;;;;;17.83;4.63;;;16.90;99.90;;;;;;5034736;28;20038;-86
2023/08/02 08:27:29;;;;;;;10.90;3.42;;;16.90;99.90;;;;;;5011241;28;20519;-86
2023/08/02 08:29:55;;;;;;;14.75;4.03;;;16.90;99.90;;;;;;5009005;28;20096;-86
2023/08/02 08:32:26;;;;;;;16.13;3.72;;;16.90;99.90;;;;;;5007923;28;20041;-85
2023/08/02 08:34:52;;;;;;;11.30;3.65;;;16.80;99.90;;;;;;5009592;28;20358;-86
2023/08/02 08:37:18;;;;;;;12.20;4.10;;;16.80;99.90;;;;;;5007664;28;20048;-83
2023/08/02 08:39:44;;;;;;;12.93;3.70;;;16.70;99.90;;;;;;5026910;28;20127;-83
2023/08/02 08:42:10;;;;;;;10.05;3.85;;;16.70;99.90;;;;;;5009156;28;20041;-83
2023/08/02 08:44:37;;;;;;;13.05;3.70;;;16.60;99.90;;;;;;4991673;28;20049;-83
2023/08/02 08:47:07;;;;;;;13.18;4.20;;;16.50;99.90;;;;;;5009756;28;20053;-83
2023/08/02 08:49:33;;;;;;;18.55;4.20;;;16.40;99.90;;;;;;5026567;28;20046;-83
2023/08/02 08:52:04;;;;;;;15.80;4.10;;;16.40;99.90;;;;;;5007631;28;20049;-83
2023/08/02 08:54:32;;;;;;;12.32;3.65;;;16.30;99.90;;;;;;5026274;28;20119;-83
2023/08/02 08:56:59;;;;;;;15.05;4.55;;;16.20;99.90;;;;;;4981202;28;20049;-83
2023/08/02 08:59:25;;;;;;;16.80;5.00;;;16.20;99.90;;;;;;5024087;28;20456;-84
2023/08/02 09:01:52;;;;;;;14.73;4.43;;;16.10;99.90;;;;;;5025559;28;20085;-84
2023/08/02 09:04:18;;;;;;;15.25;4.25;;;16.10;99.90;;;;;;5025410;28;20041;-84
2023/08/02 09:06:44;;;;;;;11.10;4.05;;;16.00;99.90;;;;;;4991191;28;20618;-84
2023/08/02 09:09:14;;;;;;;16.63;4.65;;;16.00;99.90;;;;;;5008697;28;20038;-84
2023/08/02 09:11:41;;;;;;;14.13;4.15;;;15.90;99.90;;;;;;4987226;28;20041;-84
2023/08/02 09:14:12;;;;;;;9.85;4.05;;;15.90;99.90;;;;;;5008339;28;20115;-83
2023/08/02 09:16:56;;;;;;;12.70;4.43;;;15.90;99.90;;;;;;5007173;28;20053;-83
2023/08/02 09:19:23;;;;;;;34.40;8.23;;;15.90;99.90;;;;;;5007432;28;20493;-83
2023/08/02 09:22:21;;;;;;;16.13;5.03;;;15.90;99.90;;;;;;4994004;28;20497;-83
2023/08/02 09:24:47;;;;;;;12.40;4.32;;;15.90;99.90;;;;;;5006019;28;20061;-82
2023/08/02 09:27:18;;;;;;;11.80;4.72;;;16.00;99.90;;;;;;5028688;28;20044;-84
2023/08/02 09:29:51;;;;;;;10.18;4.28;;;16.10;99.90;;;;;;5013954;28;20516;-83
2023/08/02 09:32:17;;;;;;;;;;;16.20;99.90;;;;;;5029065;28;20053;-84
2023/08/02 09:34:47;;;;;;;7.72;3.55;;;16.20;99.90;;;;;;4995061;28;19925;-83
2023/08/02 09:37:14;;;;;;;9.55;3.70;;;16.30;99.90;;;;;;5011541;28;20041;-84
2023/08/02 09:39:49;;;;;;;11.90;3.60;;;16.30;99.90;;;;;;5011462;28;20046;-83
2023/08/02 09:42:14;;;;;;;14.63;4.53;;;16.30;99.90;;;;;;5028531;28;20060;-85
2023/08/02 09:44:41;;;;;;;14.02;4.30;;;16.30;99.90;;;;;;5028845;28;20134;-84
2023/08/02 09:47:11;;;;;;;11.02;4.30;;;16.30;99.90;;;;;;5008878;28;20037;-84
2023/08/02 09:49:38;;;;;;;9.98;3.95;;;16.30;99.90;;;;;;5015265;28;20417;-84
2023/08/02 09:52:05;;;;;;;14.52;4.20;;;16.30;99.90;;;;;;5007804;28;20049;-84
2023/08/02 09:54:31;;;;;;;13.85;4.10;;;16.40;99.90;;;;;;5011115;28;20072;-84
2023/08/02 09:56:57;;;;;;;9.57;4.32;;;16.40;99.90;;;;;;5027687;28;20493;-83
2023/08/02 09:59:28;;;;;;;11.25;4.70;;;16.40;99.90;;;;;;4995372;28;20402;-84
2023/08/02 10:01:55;;;;;;;13.07;4.43;;;16.50;99.90;;;;;;5009253;28;20053;-83
2023/08/02 10:04:23;;;;;;;12.70;5.30;;;16.50;99.90;;;;;;5011497;28;20033;-84
2023/08/02 10:07:03;;;;;;;13.52;5.60;;;16.60;99.90;;;;;;5026177;28;20042;-84
2023/08/02 10:09:33;;;;;;;10.55;5.38;;;16.60;99.90;;;;;;5008762;28;20409;-83
2023/08/02 10:12:13;;;;;;;16.15;5.07;;;16.70;99.90;;;;;;4992816;28;20458;-83
2023/08/02 10:14:40;;;;;;;11.65;5.10;;;16.70;99.90;;;;;;5026389;28;20575;-84
2023/08/02 10:17:07;;;;;;;11.40;5.40;;;16.70;99.90;;;;;;4991602;28;20137;-84
2023/08/02 10:19:34;;;;;;;11.50;5.07;;;16.60;99.90;;;;;;4992720;28;20051;-84
2023/08/02 10:22:03;;;;;;;13.95;5.30;;;16.60;99.90;;;;;;5028830;28;20100;-84
2023/08/02 10:24:29;;;;;;;12.85;5.68;;;16.60;99.90;;;;;;5009989;28;20052;-84
2023/08/02 10:26:57;;;;;;;12.93;6.03;;;16.50;99.90;;;;;;5010996;28;20508;-84
2023/08/02 10:29:25;;;;;;;12.75;5.57;;;16.50;99.90;;;;;;5010110;28;20370;-83
2023/08/02 10:31:51;;;;;;;19.30;6.03;;;16.50;99.90;;;;;;5009426;28;20049;-84
2023/08/02 10:34:45;;;;;;;10.57;5.30;;;16.40;99.90;;;;;;5028537;28;20052;-83
2023/08/02 10:37:10;;;;;;;10.50;5.35;;;16.40;99.90;;;;;;5021807;28;20057;-82
2023/08/02 10:39:45;;;;;;;9.98;5.70;;;16.40;99.90;;;;;;5006411;28;20053;-82
2023/08/02 10:42:16;;;;;;;14.05;5.28;;;16.40;99.90;;;;;;5029047;28;20045;-82
2023/08/02 10:44:57;;;;;;;9.07;4.88;;;16.50;99.90;;;;;;5009167;28;20125;-82
2023/08/02 10:47:31;;;;;;;13.20;5.57;;;16.60;99.90;;;;;;5027184;28;20089;-83
2023/08/02 10:49:59;;;;;;;10.50;4.80;;;16.60;99.90;;;;;;5010668;28;20441;-82
2023/08/02 10:52:36;;;;;;;12.00;4.88;;;16.70;99.90;;;;;;5009227;28;20611;-82
2023/08/02 10:55:15;;;;;;;9.95;3.80;;;16.80;99.90;;;;;;5008137;28;20041;-83
2023/08/02 10:57:53;;;;;;;7.70;3.60;;;16.80;99.90;;;;;;5007527;28;20489;-82
2023/08/02 11:00:23;;;;;;;7.82;2.88;;;16.90;99.90;;;;;;5027042;28;20045;-83
2023/08/02 11:02:50;;;;;;;7.53;3.40;;;16.90;99.90;;;;;;5013197;28;20057;-83
2023/08/02 11:05:35;;;;;;;6.00;2.90;;;17.00;99.90;;;;;;5016527;28;20052;-82
2023/08/02 11:08:01;;;;;;;4.57;2.80;;;17.10;99.90;;;;;;5026394;28;20437;-83
2023/08/02 11:10:27;;;;;;;4.95;2.53;;;17.10;99.90;;;;;;5027529;28;20576;-81
2023/08/02 11:12:54;;;;;;;6.00;2.35;;;17.10;99.90;;;;;;5027293;28;20056;-82
2023/08/02 11:15:21;;;;;;;4.03;2.10;;;17.20;99.90;;;;;;5010122;28;20046;-83
2023/08/02 11:17:53;;;;;;;4.18;2.00;;;17.30;99.90;;;;;;5025345;28;20049;-82
2023/08/02 11:20:24;;;;;;;4.43;1.87;;;17.40;99.90;;;;;;5027135;28;20077;-83
2023/08/02 11:22:50;;;;;;;3.38;1.42;;;17.50;99.90;;;;;;4993657;28;20493;-83
2023/08/02 11:25:20;;;;;;;3.95;1.65;;;17.40;99.90;;;;;;5009967;28;20082;-82
2023/08/02 11:27:45;;;;;;;3.10;1.40;;;17.40;99.90;;;;;;4998370;28;20049;-83
2023/08/02 11:30:11;;;;;;;3.97;1.33;;;17.30;99.90;;;;;;5010022;28;20046;-83
2023/08/02 11:32:44;;;;;;;4.45;1.27;;;17.20;99.90;;;;;;5008391;28;20508;-83
2023/08/02 11:35:21;;;;;;;3.60;1.30;;;17.20;99.90;;;;;;5009986;28;20053;-83
2023/08/02 11:37:47;;;;;;;3.78;1.60;;;17.20;99.90;;;;;;4993127;28;20472;-83
2023/08/02 11:40:14;;;;;;;2.90;1.48;;;17.10;99.90;;;;;;5009348;28;20040;-83
2023/08/02 11:42:51;;;;;;;3.80;1.40;;;17.10;99.90;;;;;;4993071;28;20042;-83
2023/08/02 11:45:28;;;;;;;2.95;1.30;;;17.10;99.90;;;;;;5006957;28;20038;-83
2023/08/02 11:47:54;;;;;;;2.95;1.30;;;17.10;99.90;;;;;;5008326;28;20509;-83
2023/08/02 11:50:25;;;;;;;2.40;1.23;;;17.10;99.90;;;;;;5010228;28;20069;-83
2023/08/02 11:52:51;;;;;;;2.45;1.10;;;17.20;99.90;;;;;;5027769;28;20060;-82
2023/08/02 11:55:20;;;;;;;3.10;1.00;;;17.20;99.90;;;;;;5009584;28;20048;-83
2023/08/02 11:57:47;;;;;;;2.33;1.23;;;17.30;99.90;;;;;;5009475;28;20056;-83
2023/08/02 12:00:13;;;;;;;2.05;1.10;;;17.40;99.90;;;;;;5010022;28;20076;-83
2023/08/02 12:02:39;;;;;;;2.58;1.20;;;17.50;99.90;;;;;;5025980;28;20439;-82
2023/08/02 12:05:08;;;;;;;2.53;1.15;;;17.60;99.90;;;;;;5008797;28;20437;-83
2023/08/02 12:07:34;;;;;;;1.75;0.85;;;17.60;99.90;;;;;;5009352;28;20034;-83
2023/08/02 12:10:01;;;;;;;1.60;0.93;;;17.60;99.90;;;;;;5009019;28;20091;-83
2023/08/02 12:12:29;;;;;;;1.92;0.85;;;17.60;99.90;;;;;;5008100;28;20044;-82
2023/08/02 12:14:55;;;;;;;1.95;0.98;;;17.70;99.90;;;;;;5008827;28;20041;-82
2023/08/02 12:17:23;;;;;;;2.88;0.90;;;17.70;99.90;;;;;;5018764;28;20083;-82
2023/08/02 12:19:49;;;;;;;2.33;1.30;;;17.70;99.90;;;;;;5021436;28;20045;-82
2023/08/02 12:22:16;;;;;;;1.73;1.00;;;17.80;99.90;;;;;;5038068;28;20045;-82
2023/08/02 12:24:42;;;;;;;3.65;0.95;;;17.80;99.90;;;;;;5026992;28;20488;-83
2023/08/02 12:27:19;;;;;;;2.55;0.80;;;17.80;99.90;;;;;;5043120;28;20087;-83
2023/08/02 12:29:46;;;;;;;1.98;0.68;;;17.90;99.90;;;;;;5044628;28;20124;-83
2023/08/02 12:32:26;;;;;;;2.28;0.73;;;18.00;99.90;;;;;;5027153;28;20041;-84
2023/08/02 12:34:53;;;;;;;1.90;0.70;;;18.00;99.90;;;;;;5046677;28;20393;-83
2023/08/02 12:37:18;;;;;;;2.22;0.95;;;17.90;99.90;;;;;;5026829;28;20049;-82
2023/08/02 12:39:44;;;;;;;1.55;0.80;;;17.90;99.90;;;;;;5028286;28;20330;-82
2023/08/02 12:42:10;;;;;;;5.20;1.17;;;17.90;99.90;;;;;;5027202;28;20401;-83